createdAt,value
2017-11-29T00:00:54.901Z,0
2017-11-29T00:02:07.887Z,0
2017-11-29T00:03:20.875Z,0
2017-11-29T00:04:33.866Z,0
2017-11-29T00:05:46.904Z,0
2017-11-29T00:06:59.420Z,0
2017-11-29T00:08:11.909Z,0
2017-11-29T00:09:24.922Z,0
2017-11-29T00:10:37.965Z,0
2017-11-29T00:11:51.001Z,0
2017-11-29T00:13:04.003Z,0
2017-11-29T00:14:16.529Z,0
2017-11-29T00:15:29.493Z,0
2017-11-29T00:16:41.991Z,0
2017-11-29T00:17:54.998Z,0
2017-11-29T00:19:07.997Z,0
2017-11-29T00:20:20.939Z,0
2017-11-29T00:21:33.017Z,0
2017-11-29T00:22:45.992Z,0
2017-11-29T00:23:58.524Z,0
2017-11-29T00:25:11.503Z,0
2017-11-29T00:26:24.501Z,0
2017-11-29T00:27:37.829Z,0
2017-11-29T00:28:51.053Z,0
2017-11-29T00:30:03.585Z,0
2017-11-29T00:31:16.569Z,0
2017-11-29T00:32:28.592Z,0
2017-11-29T00:33:41.602Z,0
2017-11-29T00:34:54.566Z,0
2017-11-29T00:36:07.529Z,0
2017-11-29T00:37:20.560Z,0
2017-11-29T00:38:33.538Z,0
2017-11-29T00:39:46.525Z,0
2017-11-29T00:40:59.516Z,0
2017-11-29T00:42:12.534Z,0
2017-11-29T00:43:25.561Z,0
2017-11-29T00:44:38.557Z,0
2017-11-29T00:45:51.576Z,0
2017-11-29T00:47:04.650Z,0
2017-11-29T00:48:17.673Z,0
2017-11-29T00:49:30.717Z,0
2017-11-29T00:50:43.675Z,0
2017-11-29T00:51:56.692Z,0
2017-11-29T00:53:09.737Z,0
2017-11-29T00:54:22.808Z,0
2017-11-29T00:55:35.814Z,0
2017-11-29T00:56:48.844Z,0
2017-11-29T00:58:01.642Z,0
2017-11-29T00:59:14.132Z,0
2017-11-29T01:00:27.149Z,0
2017-11-29T01:01:40.134Z,0
2017-11-29T01:02:52.745Z,0
2017-11-29T01:04:05.663Z,0
2017-11-29T01:05:18.647Z,0
2017-11-29T01:06:31.647Z,0
2017-11-29T01:07:44.405Z,0
2017-11-29T01:08:57.368Z,0
2017-11-29T01:10:09.455Z,0
2017-11-29T01:11:21.927Z,0
2017-11-29T01:12:34.922Z,0
2017-11-29T01:13:47.878Z,0
2017-11-29T01:15:00.420Z,0
2017-11-29T01:16:13.687Z,0
2017-11-29T01:17:25.718Z,0
2017-11-29T01:18:38.749Z,0
2017-11-29T01:19:51.715Z,0
2017-11-29T01:21:04.680Z,0
2017-11-29T01:22:16.270Z,0
2017-11-29T01:23:28.777Z,0
2017-11-29T01:24:41.755Z,0
2017-11-29T01:25:54.753Z,0
2017-11-29T01:27:07.214Z,0
2017-11-29T01:28:20.161Z,0
2017-11-29T01:29:33.159Z,0
2017-11-29T01:30:46.138Z,0
2017-11-29T01:31:59.121Z,0
2017-11-29T01:33:12.139Z,0
2017-11-29T01:34:25.136Z,0
2017-11-29T01:35:38.117Z,0
2017-11-29T01:36:51.108Z,0
2017-11-29T01:38:03.601Z,0
2017-11-29T01:39:16.615Z,0
2017-11-29T01:40:29.645Z,0
2017-11-29T01:41:42.122Z,0
2017-11-29T01:42:55.132Z,0
2017-11-29T01:44:08.129Z,0
2017-11-29T01:45:21.119Z,0
2017-11-29T01:46:34.085Z,0
2017-11-29T01:47:47.100Z,0
2017-11-29T01:49:00.051Z,0
2017-11-29T01:50:13.059Z,0
2017-11-29T01:51:26.063Z,0
2017-11-29T01:52:38.560Z,0
2017-11-29T01:53:51.565Z,0
2017-11-29T01:55:04.625Z,0
2017-11-29T01:56:17.353Z,0
2017-11-29T01:57:30.327Z,0
2017-11-29T01:58:43.518Z,0
2017-11-29T01:59:56.541Z,0
2017-11-29T02:01:09.080Z,0
2017-11-29T02:02:22.100Z,0
2017-11-29T02:03:35.063Z,0
2017-11-29T02:04:47.594Z,0
2017-11-29T02:06:00.606Z,0
2017-11-29T02:07:13.582Z,0
2017-11-29T02:08:26.605Z,0
2017-11-29T02:09:39.823Z,0
2017-11-29T02:10:52.838Z,0
2017-11-29T02:12:05.334Z,0
2017-11-29T02:13:17.902Z,0
2017-11-29T02:14:30.933Z,0
2017-11-29T02:15:43.480Z,0
2017-11-29T02:16:56.472Z,0
2017-11-29T02:18:09.491Z,0
2017-11-29T02:19:22.480Z,0
2017-11-29T02:20:34.631Z,0
2017-11-29T02:21:47.617Z,0
2017-11-29T02:23:00.597Z,0
2017-11-29T02:24:13.120Z,0
2017-11-29T02:25:26.125Z,0
2017-11-29T02:26:39.085Z,0
2017-11-29T02:27:51.133Z,0
2017-11-29T02:29:04.330Z,0
2017-11-29T02:30:17.299Z,0
2017-11-29T02:31:31.013Z,0
2017-11-29T02:32:43.999Z,0
2017-11-29T02:33:56.460Z,0
2017-11-29T02:35:08.972Z,0
2017-11-29T02:36:21.513Z,0
2017-11-29T02:37:34.530Z,0
2017-11-29T02:38:46.100Z,0
2017-11-29T02:39:59.095Z,0
2017-11-29T02:41:12.317Z,0
2017-11-29T02:42:24.879Z,0
2017-11-29T02:43:37.949Z,0
2017-11-29T02:44:50.935Z,0
2017-11-29T02:46:03.459Z,0
2017-11-29T02:47:16.675Z,0
2017-11-29T02:48:29.194Z,0
2017-11-29T02:49:41.706Z,0
2017-11-29T02:50:54.914Z,0
2017-11-29T02:52:07.435Z,0
2017-11-29T02:53:20.433Z,0
2017-11-29T02:54:33.449Z,0
2017-11-29T02:55:45.362Z,0
2017-11-29T02:56:57.848Z,0
2017-11-29T02:58:10.882Z,0
2017-11-29T02:59:23.387Z,0
2017-11-29T03:00:36.390Z,0
2017-11-29T03:01:49.377Z,0
2017-11-29T03:03:02.357Z,0
2017-11-29T03:04:14.911Z,0
2017-11-29T03:05:27.880Z,0
2017-11-29T03:06:40.915Z,0
2017-11-29T03:07:52.970Z,0
2017-11-29T03:09:05.999Z,0
2017-11-29T03:10:19.060Z,0
2017-11-29T03:11:31.614Z,0
2017-11-29T03:12:44.821Z,0
2017-11-29T03:13:57.329Z,0
2017-11-29T03:15:10.687Z,0
2017-11-29T03:16:23.996Z,0
2017-11-29T03:17:36.713Z,0
2017-11-29T03:18:49.735Z,0
2017-11-29T03:20:02.228Z,0
2017-11-29T03:21:14.760Z,0
2017-11-29T03:22:27.271Z,0
2017-11-29T03:23:40.263Z,0
2017-11-29T03:24:53.464Z,0
2017-11-29T03:26:06.439Z,0
2017-11-29T03:27:19.172Z,0
2017-11-29T03:28:32.400Z,0
2017-11-29T03:29:45.385Z,0
2017-11-29T03:30:58.611Z,0
2017-11-29T03:32:10.712Z,0
2017-11-29T03:33:23.745Z,0
2017-11-29T03:34:36.947Z,0
2017-11-29T03:35:50.051Z,0
2017-11-29T03:37:03.058Z,0
2017-11-29T03:38:15.631Z,0
2017-11-29T03:39:28.175Z,0
2017-11-29T03:40:41.151Z,0
2017-11-29T03:41:53.211Z,0
2017-11-29T03:43:06.205Z,0
2017-11-29T03:44:18.735Z,0
2017-11-29T03:45:31.751Z,0
2017-11-29T03:46:44.259Z,0
2017-11-29T03:47:57.441Z,0
2017-11-29T03:49:10.414Z,0
2017-11-29T03:50:23.419Z,0
2017-11-29T03:51:36.435Z,0
2017-11-29T03:52:48.986Z,0
2017-11-29T03:54:01.946Z,0
2017-11-29T03:55:14.944Z,0
2017-11-29T03:56:27.958Z,0
2017-11-29T03:57:40.951Z,0
2017-11-29T03:58:53.997Z,0
2017-11-29T04:00:06.080Z,0
2017-11-29T04:01:19.105Z,0
2017-11-29T04:02:31.176Z,0
2017-11-29T04:03:44.336Z,0
2017-11-29T04:04:57.552Z,0
2017-11-29T04:06:10.052Z,0
2017-11-29T04:07:23.038Z,0
2017-11-29T04:08:35.569Z,0
2017-11-29T04:09:48.546Z,0
2017-11-29T04:11:01.076Z,0
2017-11-29T04:12:14.019Z,0
2017-11-29T04:13:26.999Z,0
2017-11-29T04:14:39.572Z,0
2017-11-29T04:15:52.105Z,0
2017-11-29T04:17:04.666Z,0
2017-11-29T04:18:17.201Z,0
2017-11-29T04:19:29.268Z,0
2017-11-29T04:20:42.285Z,0
2017-11-29T04:21:55.309Z,0
2017-11-29T04:23:08.292Z,0
2017-11-29T04:24:21.340Z,0
2017-11-29T04:25:34.384Z,0
2017-11-29T04:26:47.427Z,0
2017-11-29T04:28:00.621Z,0
2017-11-29T04:29:13.618Z,0
2017-11-29T04:30:26.668Z,0
2017-11-29T04:31:39.935Z,0
2017-11-29T04:32:53.107Z,0
2017-11-29T04:34:06.087Z,0
2017-11-29T04:35:19.069Z,0
2017-11-29T04:36:31.620Z,0
2017-11-29T04:37:44.628Z,0
2017-11-29T04:38:57.617Z,0
2017-11-29T04:40:10.579Z,0
2017-11-29T04:41:23.768Z,0
2017-11-29T04:42:36.743Z,0
2017-11-29T04:43:49.298Z,0
2017-11-29T04:45:02.250Z,0
2017-11-29T04:46:15.318Z,0
2017-11-29T04:47:28.336Z,0
2017-11-29T04:48:41.309Z,0
2017-11-29T04:49:54.288Z,0
2017-11-29T04:51:06.842Z,0
2017-11-29T04:52:19.849Z,0
2017-11-29T04:53:32.395Z,0
2017-11-29T04:54:45.390Z,0
2017-11-29T04:55:58.371Z,0
2017-11-29T04:57:10.931Z,0
2017-11-29T04:58:23.461Z,0
2017-11-29T04:59:36.437Z,0
2017-11-29T05:00:48.986Z,0
2017-11-29T05:02:01.517Z,0
2017-11-29T05:03:14.052Z,0
2017-11-29T05:04:27.069Z,0
2017-11-29T05:05:40.103Z,0
2017-11-29T05:06:52.597Z,0
2017-11-29T05:08:05.110Z,0
2017-11-29T05:09:17.599Z,0
2017-11-29T05:10:30.569Z,0
2017-11-29T05:11:43.075Z,0
2017-11-29T05:12:56.105Z,0
2017-11-29T05:14:09.110Z,0
2017-11-29T05:15:21.862Z,0
2017-11-29T05:16:34.869Z,0
2017-11-29T05:17:47.888Z,0
2017-11-29T05:19:01.111Z,0
2017-11-29T05:20:14.068Z,0
2017-11-29T05:21:27.067Z,0
2017-11-29T05:22:39.946Z,0
2017-11-29T05:23:52.466Z,0
2017-11-29T05:25:05.514Z,0
2017-11-29T05:26:18.481Z,0
2017-11-29T05:27:31.479Z,0
2017-11-29T05:28:44.424Z,0
2017-11-29T05:29:57.421Z,0
2017-11-29T05:31:10.442Z,0
2017-11-29T05:32:23.468Z,0
2017-11-29T05:33:36.490Z,0
2017-11-29T05:34:49.472Z,0
2017-11-29T05:36:02.493Z,0
2017-11-29T05:37:15.008Z,0
2017-11-29T05:38:28.035Z,0
2017-11-29T05:39:41.005Z,0
2017-11-29T05:40:54.018Z,0
2017-11-29T05:42:06.723Z,0
2017-11-29T05:43:19.987Z,0
2017-11-29T05:44:33.209Z,0
2017-11-29T05:45:46.226Z,0
2017-11-29T05:46:59.254Z,0
2017-11-29T05:48:12.468Z,0
2017-11-29T05:49:25.011Z,0
2017-11-29T05:50:38.051Z,0
2017-11-29T05:51:50.586Z,0
2017-11-29T05:53:03.557Z,0
2017-11-29T05:54:16.512Z,0
2017-11-29T05:55:29.538Z,0
2017-11-29T05:56:42.577Z,0
2017-11-29T05:57:55.598Z,0
2017-11-29T05:59:08.097Z,0
2017-11-29T06:00:21.120Z,0
2017-11-29T06:01:34.138Z,0
2017-11-29T06:02:46.633Z,0
2017-11-29T06:03:59.801Z,0
2017-11-29T06:05:12.346Z,0
2017-11-29T06:06:25.359Z,0
2017-11-29T06:07:37.898Z,0
2017-11-29T06:08:50.869Z,0
2017-11-29T06:10:03.364Z,0
2017-11-29T06:11:15.902Z,0
2017-11-29T06:12:28.875Z,0
2017-11-29T06:13:42.082Z,0
2017-11-29T06:14:54.639Z,0
2017-11-29T06:16:07.640Z,0
2017-11-29T06:17:20.663Z,0
2017-11-29T06:18:33.377Z,0
2017-11-29T06:19:46.647Z,0
2017-11-29T06:20:59.628Z,0
2017-11-29T06:22:12.694Z,0
2017-11-29T06:23:25.715Z,0
2017-11-29T06:24:38.693Z,0
2017-11-29T06:25:51.703Z,0
2017-11-29T06:27:04.655Z,0
2017-11-29T06:28:17.160Z,0
2017-11-29T06:29:30.185Z,0
2017-11-29T06:30:43.192Z,0
2017-11-29T06:31:56.177Z,0
2017-11-29T06:33:09.167Z,0
2017-11-29T06:34:22.143Z,0
2017-11-29T06:35:34.704Z,0
2017-11-29T06:36:47.739Z,0
2017-11-29T06:38:00.293Z,0
2017-11-29T06:39:13.274Z,0
2017-11-29T06:40:26.301Z,0
2017-11-29T06:41:39.302Z,0
2017-11-29T06:42:52.339Z,0
2017-11-29T06:44:04.868Z,0
2017-11-29T06:45:17.914Z,0
2017-11-29T06:46:30.946Z,0
2017-11-29T06:47:43.461Z,0
2017-11-29T06:48:56.470Z,0
2017-11-29T06:50:09.467Z,0
2017-11-29T06:51:22.508Z,0
2017-11-29T06:52:35.522Z,0
2017-11-29T06:53:48.531Z,0
2017-11-29T06:55:01.536Z,0
2017-11-29T06:56:14.510Z,0
2017-11-29T06:57:27.727Z,0
2017-11-29T06:58:40.760Z,0
2017-11-29T06:59:53.752Z,0
2017-11-29T07:01:06.921Z,0
2017-11-29T07:02:19.462Z,0
2017-11-29T07:03:32.429Z,0
2017-11-29T07:04:45.388Z,0
2017-11-29T07:05:58.406Z,0
2017-11-29T07:07:11.434Z,0
2017-11-29T07:08:24.423Z,0
2017-11-29T07:09:37.422Z,0
2017-11-29T07:10:50.383Z,0
2017-11-29T07:12:03.374Z,0
2017-11-29T07:13:16.391Z,0
2017-11-29T07:14:28.463Z,0
2017-11-29T07:15:41.430Z,0
2017-11-29T07:16:54.374Z,0
2017-11-29T07:18:07.400Z,0
2017-11-29T07:19:19.910Z,0
2017-11-29T07:20:32.420Z,0
2017-11-29T07:21:45.415Z,0
2017-11-29T07:22:58.406Z,0
2017-11-29T07:24:11.428Z,0
2017-11-29T07:25:24.395Z,0
2017-11-29T07:26:37.369Z,0
2017-11-29T07:27:50.358Z,0
2017-11-29T07:29:03.337Z,0
2017-11-29T07:30:16.288Z,0
2017-11-29T07:31:29.299Z,0
2017-11-29T07:32:42.240Z,0
2017-11-29T07:33:55.194Z,0
2017-11-29T07:35:08.187Z,0
2017-11-29T07:36:20.737Z,0
2017-11-29T07:37:33.729Z,0
2017-11-29T07:38:46.761Z,0
2017-11-29T07:39:59.741Z,0
2017-11-29T07:41:12.713Z,0
2017-11-29T07:42:25.227Z,4
2017-11-29T07:43:38.262Z,0
2017-11-29T07:44:51.237Z,4
2017-11-29T07:46:03.730Z,4
2017-11-29T07:47:16.294Z,4
2017-11-29T07:48:29.515Z,8
2017-11-29T07:49:42.526Z,8
2017-11-29T07:50:54.574Z,12
2017-11-29T07:52:07.591Z,16
2017-11-29T07:53:20.147Z,20
2017-11-29T07:54:33.155Z,28
2017-11-29T07:55:46.138Z,40
2017-11-29T07:56:58.173Z,52
2017-11-29T07:58:10.677Z,72
2017-11-29T07:59:23.681Z,92
2017-11-29T08:00:36.885Z,116
2017-11-29T08:01:49.825Z,148
2017-11-29T08:03:03.042Z,184
2017-11-29T08:04:16.061Z,224
2017-11-29T08:05:28.577Z,276
2017-11-29T08:06:40.632Z,332
2017-11-29T08:07:53.654Z,400
2017-11-29T08:09:06.656Z,472
2017-11-29T08:10:19.648Z,556
2017-11-29T08:11:32.650Z,648
2017-11-29T08:12:45.610Z,748
2017-11-29T08:13:58.146Z,852
2017-11-29T08:15:10.664Z,972
2017-11-29T08:16:23.684Z,1100
2017-11-29T08:17:36.711Z,1244
2017-11-29T08:18:49.750Z,1400
2017-11-29T08:20:02.744Z,1576
2017-11-29T08:21:15.731Z,1780
2017-11-29T08:22:28.737Z,2000
2017-11-29T08:23:41.261Z,2232
2017-11-29T08:24:54.253Z,2472
2017-11-29T08:26:06.781Z,2704
2017-11-29T08:27:19.771Z,2980
2017-11-29T08:28:32.309Z,3256
2017-11-29T08:29:44.852Z,3564
2017-11-29T08:30:57.917Z,4024
2017-11-29T08:32:10.931Z,4312
2017-11-29T08:33:23.019Z,4760
2017-11-29T08:34:36.076Z,5172
2017-11-29T08:35:49.120Z,5548
2017-11-29T08:37:01.657Z,5972
2017-11-29T08:38:14.643Z,6564
2017-11-29T08:39:27.864Z,7164
2017-11-29T08:40:41.159Z,7600
2017-11-29T08:41:54.199Z,7984
2017-11-29T08:43:07.197Z,8368
2017-11-29T08:44:19.723Z,8708
2017-11-29T08:45:32.277Z,9496
2017-11-29T08:46:45.293Z,9968
2017-11-29T08:47:57.367Z,10080
2017-11-29T08:49:09.865Z,11260
2017-11-29T08:50:22.905Z,11812
2017-11-29T08:51:35.897Z,12612
2017-11-29T08:52:48.926Z,13296
2017-11-29T08:54:01.924Z,13488
2017-11-29T08:55:14.445Z,13976
2017-11-29T08:56:26.477Z,15072
2017-11-29T08:57:39.482Z,15392
2017-11-29T08:58:52.475Z,15648
2017-11-29T09:00:04.980Z,16160
2017-11-29T09:01:18.052Z,16704
2017-11-29T09:02:30.586Z,16960
2017-11-29T09:03:42.649Z,18144
2017-11-29T09:04:55.664Z,18560
2017-11-29T09:06:08.205Z,19296
2017-11-29T09:07:20.251Z,20448
2017-11-29T09:08:32.772Z,21792
2017-11-29T09:09:45.741Z,22208
2017-11-29T09:10:57.799Z,22976
2017-11-29T09:12:10.392Z,22944
2017-11-29T09:13:22.928Z,23936
2017-11-29T09:14:35.463Z,24416
2017-11-29T09:15:47.554Z,23264
2017-11-29T09:17:00.797Z,23360
2017-11-29T09:18:13.839Z,25600
2017-11-29T09:19:26.799Z,11268
2017-11-29T09:20:39.837Z,15036
2017-11-29T09:21:52.343Z,16124
2017-11-29T09:23:05.406Z,28992
2017-11-29T09:24:17.934Z,29696
2017-11-29T09:25:30.948Z,28128
2017-11-29T09:26:43.900Z,27904
2017-11-29T09:27:56.941Z,29984
2017-11-29T09:29:09.968Z,31712
2017-11-29T09:30:22.957Z,32448
2017-11-29T09:31:35.523Z,32704
2017-11-29T09:32:48.251Z,32512
2017-11-29T09:34:00.294Z,31904
2017-11-29T09:35:13.328Z,33760
2017-11-29T09:36:26.339Z,36704
2017-11-29T09:37:39.342Z,37248
2017-11-29T09:38:51.858Z,36768
2017-11-29T09:40:03.911Z,38848
2017-11-29T09:41:16.926Z,38560
2017-11-29T09:42:29.452Z,40832
2017-11-29T09:43:41.989Z,40896
2017-11-29T09:44:54.521Z,40992
2017-11-29T09:46:07.529Z,21088
2017-11-29T09:47:20.587Z,43360
2017-11-29T09:48:33.606Z,44512
2017-11-29T09:49:46.582Z,45664
2017-11-29T09:50:59.119Z,43872
2017-11-29T09:52:11.655Z,47616
2017-11-29T09:53:24.666Z,47232
2017-11-29T09:54:37.674Z,44640
2017-11-29T09:55:50.198Z,28608
2017-11-29T09:57:02.722Z,13848
2017-11-29T09:58:15.256Z,13700
2017-11-29T09:59:28.290Z,13780
2017-11-29T10:00:41.326Z,17152
2017-11-29T10:01:53.826Z,26624
2017-11-29T10:03:06.818Z,25376
2017-11-29T10:04:19.969Z,27616
2017-11-29T10:05:32.986Z,21760
2017-11-29T10:06:45.540Z,20704
2017-11-29T10:07:58.066Z,18816
2017-11-29T10:09:10.584Z,20928
2017-11-29T10:10:23.628Z,57472
2017-11-29T10:11:36.217Z,61888
2017-11-29T10:12:49.266Z,28416
2017-11-29T10:14:02.014Z,22208
2017-11-29T10:15:14.516Z,61408
2017-11-29T10:16:27.056Z,60480
2017-11-29T10:17:40.077Z,58688
2017-11-29T10:18:52.620Z,60224
2017-11-29T10:20:05.796Z,60832
2017-11-29T10:21:18.828Z,64576
2017-11-29T10:22:31.861Z,17204
2017-11-29T10:23:44.930Z,15696
2017-11-29T10:24:57.958Z,16112
2017-11-29T10:26:10.487Z,20704
2017-11-29T10:27:23.506Z,21952
2017-11-29T10:28:36.084Z,22432
2017-11-29T10:29:49.088Z,26272
2017-11-29T10:31:02.109Z,51808
2017-11-29T10:32:15.151Z,30080
2017-11-29T10:33:27.959Z,28128
2017-11-29T10:34:41.190Z,57024
2017-11-29T10:35:54.309Z,77600
2017-11-29T10:37:07.347Z,46016
2017-11-29T10:38:20.357Z,57856
2017-11-29T10:39:33.402Z,74048
2017-11-29T10:40:45.969Z,81472
2017-11-29T10:41:58.936Z,22752
2017-11-29T10:43:10.508Z,25664
2017-11-29T10:44:23.039Z,27712
2017-11-29T10:45:35.635Z,60128
2017-11-29T10:46:48.814Z,35680
2017-11-29T10:48:01.817Z,82432
2017-11-29T10:49:13.850Z,33056
2017-11-29T10:50:26.400Z,50496
2017-11-29T10:51:39.354Z,89216
2017-11-29T10:52:52.339Z,37632
2017-11-29T10:54:05.353Z,36224
2017-11-29T10:55:18.648Z,83840
2017-11-29T10:56:31.853Z,80448
2017-11-29T10:57:43.920Z,88544
2017-11-29T10:58:56.933Z,22944
2017-11-29T11:00:09.956Z,21792
2017-11-29T11:01:22.969Z,25312
2017-11-29T11:02:35.937Z,82400
2017-11-29T11:03:47.971Z,91840
2017-11-29T11:05:00.494Z,52448
2017-11-29T11:06:13.002Z,36800
2017-11-29T11:07:26.192Z,40064
2017-11-29T11:08:39.208Z,54720
2017-11-29T11:09:52.276Z,89632
2017-11-29T11:11:05.504Z,41472
2017-11-29T11:12:18.577Z,34592
2017-11-29T11:13:31.635Z,34592
2017-11-29T11:14:44.649Z,63456
2017-11-29T11:15:57.668Z,48192
2017-11-29T11:17:10.919Z,77408
2017-11-29T11:18:23.511Z,77216
2017-11-29T11:19:36.561Z,36000
2017-11-29T11:20:49.557Z,82752
2017-11-29T11:22:02.775Z,80960
2017-11-29T11:23:15.778Z,82176
2017-11-29T11:24:28.771Z,85856
2017-11-29T11:25:41.299Z,87680
2017-11-29T11:26:54.287Z,32064
2017-11-29T11:28:06.807Z,87008
2017-11-29T11:29:19.411Z,89440
2017-11-29T11:30:32.426Z,82688
2017-11-29T11:31:45.445Z,31744
2017-11-29T11:32:57.507Z,91744
2017-11-29T11:34:10.474Z,95136
2017-11-29T11:35:22.496Z,68224
2017-11-29T11:36:35.480Z,95040
2017-11-29T11:37:48.689Z,48288
2017-11-29T11:39:01.748Z,93440
2017-11-29T11:40:14.265Z,41824
2017-11-29T11:41:27.386Z,50464
2017-11-29T11:42:40.406Z,29184
2017-11-29T11:43:52.956Z,102432
2017-11-29T11:45:06.008Z,60800
2017-11-29T11:46:19.126Z,47872
2017-11-29T11:47:31.751Z,106624
2017-11-29T11:48:44.788Z,51808
2017-11-29T11:49:57.837Z,33792
2017-11-29T11:51:10.409Z,31776
2017-11-29T11:52:23.432Z,38304
2017-11-29T11:53:36.428Z,37888
2017-11-29T11:54:48.515Z,82496
2017-11-29T11:56:01.485Z,40416
2017-11-29T11:57:14.053Z,63328
2017-11-29T11:58:27.089Z,98848
2017-11-29T11:59:40.123Z,98208
2017-11-29T12:00:53.099Z,43680
2017-11-29T12:02:06.080Z,72704
2017-11-29T12:03:19.269Z,37888
2017-11-29T12:04:31.848Z,63552
2017-11-29T12:05:44.396Z,95200
2017-11-29T12:06:56.927Z,95296
2017-11-29T12:08:09.491Z,93472
2017-11-29T12:09:22.728Z,89408
2017-11-29T12:10:35.288Z,90368
2017-11-29T12:11:47.601Z,92192
2017-11-29T12:13:01.058Z,95072
2017-11-29T12:14:14.349Z,95488
2017-11-29T12:15:27.592Z,95968
2017-11-29T12:16:40.600Z,95840
2017-11-29T12:17:53.589Z,97696
2017-11-29T12:19:07.014Z,99584
2017-11-29T12:20:20.197Z,102624
2017-11-29T12:21:33.252Z,109056
2017-11-29T12:22:45.311Z,56864
2017-11-29T12:23:58.787Z,99776
2017-11-29T12:25:11.819Z,54144
2017-11-29T12:26:24.864Z,112320
2017-11-29T12:27:37.874Z,113920
2017-11-29T12:28:50.440Z,113632
2017-11-29T12:30:03.006Z,113664
2017-11-29T12:31:15.535Z,114784
2017-11-29T12:32:28.769Z,41824
2017-11-29T12:33:41.813Z,109952
2017-11-29T12:34:54.558Z,106240
2017-11-29T12:36:07.073Z,99168
2017-11-29T12:37:20.291Z,107680
2017-11-29T12:38:32.843Z,110688
2017-11-29T12:39:45.918Z,109344
2017-11-29T12:40:58.942Z,104480
2017-11-29T12:42:12.124Z,108896
2017-11-29T12:43:24.670Z,110944
2017-11-29T12:44:37.696Z,107424
2017-11-29T12:45:50.240Z,113152
2017-11-29T12:47:02.817Z,113600
2017-11-29T12:48:15.361Z,111872
2017-11-29T12:49:28.378Z,112224
2017-11-29T12:50:41.394Z,113760
2017-11-29T12:51:54.452Z,114336
2017-11-29T12:53:07.438Z,112288
2017-11-29T12:54:20.434Z,114464
2017-11-29T12:55:33.469Z,112576
2017-11-29T12:56:46.215Z,116832
2017-11-29T12:57:59.229Z,124384
2017-11-29T12:59:12.267Z,110816
2017-11-29T13:00:25.538Z,114400
2017-11-29T13:01:38.498Z,114976
2017-11-29T13:02:51.728Z,102528
2017-11-29T13:04:04.274Z,117248
2017-11-29T13:05:17.294Z,123712
2017-11-29T13:06:29.868Z,118656
2017-11-29T13:07:42.890Z,113824
2017-11-29T13:08:55.905Z,115680
2017-11-29T13:10:08.912Z,118208
2017-11-29T13:11:21.941Z,120480
2017-11-29T13:12:34.221Z,124288
2017-11-29T13:13:47.458Z,127328
2017-11-29T13:15:00.556Z,126656
2017-11-29T13:16:13.619Z,124032
2017-11-29T13:17:26.167Z,122560
2017-11-29T13:18:38.725Z,122560
2017-11-29T13:19:51.725Z,119808
2017-11-29T13:21:04.206Z,119200
2017-11-29T13:22:17.241Z,115200
2017-11-29T13:23:29.920Z,110400
2017-11-29T13:24:43.102Z,110944
2017-11-29T13:25:56.091Z,110048
2017-11-29T13:27:08.616Z,112512
2017-11-29T13:28:21.777Z,112512
2017-11-29T13:29:34.778Z,111744
2017-11-29T13:30:46.852Z,112544
2017-11-29T13:31:59.860Z,114880
2017-11-29T13:33:12.404Z,121024
2017-11-29T13:34:25.418Z,124384
2017-11-29T13:35:37.922Z,123744
2017-11-29T13:36:50.434Z,125568
2017-11-29T13:38:03.557Z,123200
2017-11-29T13:39:16.094Z,118368
2017-11-29T13:40:29.058Z,119392
2017-11-29T13:41:42.083Z,116352
2017-11-29T13:42:55.110Z,115904
2017-11-29T13:44:06.745Z,125504
2017-11-29T13:45:18.341Z,132512
2017-11-29T13:46:31.295Z,130368
2017-11-29T13:47:44.288Z,125568
2017-11-29T13:48:56.843Z,122912
2017-11-29T13:50:09.383Z,122432
2017-11-29T13:51:21.910Z,126624
2017-11-29T13:52:34.510Z,132032
2017-11-29T13:53:47.607Z,129536
2017-11-29T13:55:00.601Z,124256
2017-11-29T13:56:13.630Z,120096
2017-11-29T13:57:26.225Z,119072
2017-11-29T13:58:38.752Z,119808
2017-11-29T13:59:52.170Z,118592
2017-11-29T14:01:05.182Z,114272
2017-11-29T14:02:18.210Z,110080
2017-11-29T14:03:31.233Z,112800
2017-11-29T14:04:44.293Z,118944
2017-11-29T14:05:56.892Z,119776
2017-11-29T14:07:09.912Z,122400
2017-11-29T14:08:22.442Z,129792
2017-11-29T14:09:35.691Z,129088
2017-11-29T14:10:48.687Z,126496
2017-11-29T14:12:01.728Z,135104
2017-11-29T14:13:14.766Z,139104
2017-11-29T14:14:27.565Z,135936
2017-11-29T14:15:40.641Z,126720
2017-11-29T14:16:53.193Z,124672
2017-11-29T14:18:05.462Z,128448
2017-11-29T14:19:18.584Z,137600
2017-11-29T14:20:31.162Z,139936
2017-11-29T14:21:43.736Z,134528
2017-11-29T14:22:56.935Z,133056
2017-11-29T14:24:09.924Z,131552
2017-11-29T14:25:22.930Z,134048
2017-11-29T14:26:35.915Z,133376
2017-11-29T14:27:48.943Z,132416
2017-11-29T14:29:01.488Z,135424
2017-11-29T14:30:14.512Z,136480
2017-11-29T14:31:27.303Z,132960
2017-11-29T14:32:39.850Z,131104
2017-11-29T14:33:52.857Z,134048
2017-11-29T14:35:05.853Z,128896
2017-11-29T14:36:18.894Z,113056
2017-11-29T14:37:31.899Z,106240
2017-11-29T14:38:44.901Z,104320
2017-11-29T14:39:58.134Z,107968
2017-11-29T14:41:11.123Z,115328
2017-11-29T14:42:23.677Z,114528
2017-11-29T14:43:36.221Z,108960
2017-11-29T14:44:49.377Z,113504
2017-11-29T14:46:02.397Z,119872
2017-11-29T14:47:15.669Z,117824
2017-11-29T14:48:28.228Z,118880
2017-11-29T14:49:41.263Z,122336
2017-11-29T14:50:54.287Z,125728
2017-11-29T14:52:07.340Z,123264
2017-11-29T14:53:20.598Z,123200
2017-11-29T14:54:33.590Z,124096
2017-11-29T14:55:46.578Z,121216
2017-11-29T14:56:59.582Z,122624
2017-11-29T14:58:12.616Z,126496
2017-11-29T14:59:25.640Z,127072
2017-11-29T15:00:38.135Z,133472
2017-11-29T15:01:51.152Z,136640
2017-11-29T15:03:04.161Z,133888
2017-11-29T15:04:16.767Z,130912
2017-11-29T15:05:29.305Z,132064
2017-11-29T15:06:42.534Z,130624
2017-11-29T15:07:55.565Z,128320
2017-11-29T15:09:08.579Z,126976
2017-11-29T15:10:21.219Z,130144
2017-11-29T15:11:33.289Z,133184
2017-11-29T15:12:46.330Z,134624
2017-11-29T15:13:58.920Z,132608
2017-11-29T15:15:12.029Z,126048
2017-11-29T15:16:24.587Z,122272
2017-11-29T15:17:37.140Z,121408
2017-11-29T15:18:50.224Z,123712
2017-11-29T15:20:02.792Z,132032
2017-11-29T15:21:14.908Z,131488
2017-11-29T15:22:27.902Z,133312
2017-11-29T15:23:40.923Z,135520
2017-11-29T15:24:54.176Z,132736
2017-11-29T15:26:06.911Z,130464
2017-11-29T15:27:19.392Z,131936
2017-11-29T15:28:32.375Z,132512
2017-11-29T15:29:45.448Z,137728
2017-11-29T15:30:57.982Z,139904
2017-11-29T15:32:10.575Z,126176
2017-11-29T15:33:23.559Z,123936
2017-11-29T15:34:36.598Z,118368
2017-11-29T15:35:49.217Z,115424
2017-11-29T15:37:01.264Z,126528
2017-11-29T15:38:13.278Z,134688
2017-11-29T15:39:25.336Z,135616
2017-11-29T15:40:38.347Z,125760
2017-11-29T15:41:51.561Z,122272
2017-11-29T15:43:04.572Z,126080
2017-11-29T15:44:17.541Z,125792
2017-11-29T15:45:30.575Z,125280
2017-11-29T15:46:42.633Z,125120
2017-11-29T15:47:55.666Z,123488
2017-11-29T15:49:08.688Z,113728
2017-11-29T15:50:21.226Z,113952
2017-11-29T15:51:34.255Z,122112
2017-11-29T15:52:46.317Z,126144
2017-11-29T15:53:59.300Z,121952
2017-11-29T15:55:11.879Z,120608
2017-11-29T15:56:24.874Z,119200
2017-11-29T15:57:37.462Z,115776
2017-11-29T15:58:50.543Z,113152
2017-11-29T16:00:03.056Z,109120
2017-11-29T16:01:15.624Z,105216
2017-11-29T16:02:28.613Z,107072
2017-11-29T16:03:41.682Z,112000
2017-11-29T16:04:54.213Z,117280
2017-11-29T16:06:06.743Z,116864
2017-11-29T16:07:19.742Z,112064
2017-11-29T16:08:32.751Z,108128
2017-11-29T16:09:44.820Z,106208
2017-11-29T16:10:57.834Z,107136
2017-11-29T16:12:10.919Z,111232
2017-11-29T16:13:23.004Z,111552
2017-11-29T16:14:35.577Z,109696
2017-11-29T16:15:48.131Z,107968
2017-11-29T16:17:01.399Z,105440
2017-11-29T16:18:13.959Z,104000
2017-11-29T16:19:26.957Z,105120
2017-11-29T16:20:39.496Z,110464
2017-11-29T16:21:52.485Z,117344
2017-11-29T16:23:05.051Z,118656
2017-11-29T16:24:18.072Z,117216
2017-11-29T16:25:30.148Z,116128
2017-11-29T16:26:43.334Z,113760
2017-11-29T16:27:56.576Z,111552
2017-11-29T16:29:09.142Z,112064
2017-11-29T16:30:21.704Z,109504
2017-11-29T16:31:34.763Z,106592
2017-11-29T16:32:47.777Z,113376
2017-11-29T16:34:00.780Z,116512